sensor_id;sensor_type;location;lat;lon;timestamp;temperature;humidity
67054;SHT31;53960;51.826;5.850;2022-07-10T00:00:27;16.28;70.19
67054;SHT31;53960;51.826;5.850;2022-07-10T00:02:53;16.27;69.96
67054;SHT31;53960;51.826;5.850;2022-07-10T00:05:19;16.20;70.01
67054;SHT31;53960;51.826;5.850;2022-07-10T00:07:44;16.18;70.05
67054;SHT31;53960;51.826;5.850;2022-07-10T00:10:10;16.23;69.96
67054;SHT31;53960;51.826;5.850;2022-07-10T00:12:36;16.20;71.55
67054;SHT31;53960;51.826;5.850;2022-07-10T00:15:05;16.24;71.12
67054;SHT31;53960;51.826;5.850;2022-07-10T00:17:31;16.27;70.41
67054;SHT31;53960;51.826;5.850;2022-07-10T00:19:56;16.31;69.91
67054;SHT31;53960;51.826;5.850;2022-07-10T00:22:22;16.28;70.21
67054;SHT31;53960;51.826;5.850;2022-07-10T00:24:47;16.24;69.62
67054;SHT31;53960;51.826;5.850;2022-07-10T00:27:12;16.27;70.03
67054;SHT31;53960;51.826;5.850;2022-07-10T00:29:38;16.41;68.96
67054;SHT31;53960;51.826;5.850;2022-07-10T00:32:04;16.34;69.41
67054;SHT31;53960;51.826;5.850;2022-07-10T00:34:29;16.31;69.61
67054;SHT31;53960;51.826;5.850;2022-07-10T00:36:55;16.28;70.27
67054;SHT31;53960;51.826;5.850;2022-07-10T00:39:20;16.24;71.14
67054;SHT31;53960;51.826;5.850;2022-07-10T00:41:45;16.12;70.62
67054;SHT31;53960;51.826;5.850;2022-07-10T00:44:11;16.16;70.98
67054;SHT31;53960;51.826;5.850;2022-07-10T00:46:36;16.26;70.10
67054;SHT31;53960;51.826;5.850;2022-07-10T00:49:01;16.18;70.91
67054;SHT31;53960;51.826;5.850;2022-07-10T00:51:29;16.14;70.28
67054;SHT31;53960;51.826;5.850;2022-07-10T00:53:56;16.10;70.77
67054;SHT31;53960;51.826;5.850;2022-07-10T00:56:26;15.99;71.87
67054;SHT31;53960;51.826;5.850;2022-07-10T00:58:52;16.02;71.27
67054;SHT31;53960;51.826;5.850;2022-07-10T01:01:17;15.93;71.47
67054;SHT31;53960;51.826;5.850;2022-07-10T01:03:43;15.92;71.20
67054;SHT31;53960;51.826;5.850;2022-07-10T01:06:11;15.89;70.76
67054;SHT31;53960;51.826;5.850;2022-07-10T01:08:36;15.89;71.15
67054;SHT31;53960;51.826;5.850;2022-07-10T01:11:02;15.86;71.13
67054;SHT31;53960;51.826;5.850;2022-07-10T01:13:27;15.90;71.17
67054;SHT31;53960;51.826;5.850;2022-07-10T01:15:53;15.95;71.08
67054;SHT31;53960;51.826;5.850;2022-07-10T01:18:19;15.89;71.51
67054;SHT31;53960;51.826;5.850;2022-07-10T01:20:44;15.90;71.63
67054;SHT31;53960;51.826;5.850;2022-07-10T01:23:09;15.95;71.59
67054;SHT31;53960;51.826;5.850;2022-07-10T01:25:35;16.03;70.97
67054;SHT31;53960;51.826;5.850;2022-07-10T01:28:00;16.03;71.09
67054;SHT31;53960;51.826;5.850;2022-07-10T01:30:26;15.95;71.59
67054;SHT31;53960;51.826;5.850;2022-07-10T01:32:52;15.93;71.46
67054;SHT31;53960;51.826;5.850;2022-07-10T01:35:18;15.90;71.78
67054;SHT31;53960;51.826;5.850;2022-07-10T01:37:43;15.86;71.62
67054;SHT31;53960;51.826;5.850;2022-07-10T01:40:09;15.86;71.65
67054;SHT31;53960;51.826;5.850;2022-07-10T01:42:35;15.83;71.84
67054;SHT31;53960;51.826;5.850;2022-07-10T01:45:00;15.82;72.13
67054;SHT31;53960;51.826;5.850;2022-07-10T01:47:25;15.76;72.85
67054;SHT31;53960;51.826;5.850;2022-07-10T01:49:53;15.70;72.15
67054;SHT31;53960;51.826;5.850;2022-07-10T01:52:19;15.82;71.81
67054;SHT31;53960;51.826;5.850;2022-07-10T01:54:44;15.68;72.80
67054;SHT31;53960;51.826;5.850;2022-07-10T01:57:10;15.73;72.64
67054;SHT31;53960;51.826;5.850;2022-07-10T01:59:35;15.78;72.21
67054;SHT31;53960;51.826;5.850;2022-07-10T02:02:00;15.68;72.68
67054;SHT31;53960;51.826;5.850;2022-07-10T02:04:25;15.79;72.52
67054;SHT31;53960;51.826;5.850;2022-07-10T02:07:10;15.76;72.54
67054;SHT31;53960;51.826;5.850;2022-07-10T02:09:36;15.73;72.60
67054;SHT31;53960;51.826;5.850;2022-07-10T02:12:02;15.76;72.65
67054;SHT31;53960;51.826;5.850;2022-07-10T02:14:27;15.68;72.80
67054;SHT31;53960;51.826;5.850;2022-07-10T02:16:53;15.65;73.16
67054;SHT31;53960;51.826;5.850;2022-07-10T02:19:18;15.63;73.06
67054;SHT31;53960;51.826;5.850;2022-07-10T02:21:44;15.48;73.61
67054;SHT31;53960;51.826;5.850;2022-07-10T02:24:11;15.55;73.59
67054;SHT31;53960;51.826;5.850;2022-07-10T02:26:36;15.62;73.17
67054;SHT31;53960;51.826;5.850;2022-07-10T02:29:02;15.65;73.13
67054;SHT31;53960;51.826;5.850;2022-07-10T02:31:27;15.69;72.82
67054;SHT31;53960;51.826;5.850;2022-07-10T02:33:52;15.63;73.34
67054;SHT31;53960;51.826;5.850;2022-07-10T02:36:17;15.62;73.63
67054;SHT31;53960;51.826;5.850;2022-07-10T02:38:43;15.59;73.37
67054;SHT31;53960;51.826;5.850;2022-07-10T02:41:08;15.63;73.23
67054;SHT31;53960;51.826;5.850;2022-07-10T02:43:33;15.65;74.06
67054;SHT31;53960;51.826;5.850;2022-07-10T02:45:59;15.62;73.83
67054;SHT31;53960;51.826;5.850;2022-07-10T02:48:24;15.59;74.54
67054;SHT31;53960;51.826;5.850;2022-07-10T02:50:49;15.55;74.32
67054;SHT31;53960;51.826;5.850;2022-07-10T02:53:15;15.48;74.48
67054;SHT31;53960;51.826;5.850;2022-07-10T02:55:40;15.48;74.63
67054;SHT31;53960;51.826;5.850;2022-07-10T02:58:05;15.45;74.65
67054;SHT31;53960;51.826;5.850;2022-07-10T03:00:30;15.35;75.03
67054;SHT31;53960;51.826;5.850;2022-07-10T03:02:56;15.37;74.43
67054;SHT31;53960;51.826;5.850;2022-07-10T03:05:22;15.32;74.85
67054;SHT31;53960;51.826;5.850;2022-07-10T03:07:47;15.32;75.73
67054;SHT31;53960;51.826;5.850;2022-07-10T03:10:13;15.28;74.83
67054;SHT31;53960;51.826;5.850;2022-07-10T03:12:38;15.23;75.19
67054;SHT31;53960;51.826;5.850;2022-07-10T03:15:05;15.25;75.21
67054;SHT31;53960;51.826;5.850;2022-07-10T03:17:30;15.35;75.30
67054;SHT31;53960;51.826;5.850;2022-07-10T03:19:56;15.38;75.03
67054;SHT31;53960;51.826;5.850;2022-07-10T03:22:21;15.31;74.76
67054;SHT31;53960;51.826;5.850;2022-07-10T03:24:47;15.27;74.70
67054;SHT31;53960;51.826;5.850;2022-07-10T03:27:13;15.34;75.01
67054;SHT31;53960;51.826;5.850;2022-07-10T03:29:39;15.35;75.11
67054;SHT31;53960;51.826;5.850;2022-07-10T03:32:04;15.35;74.71
67054;SHT31;53960;51.826;5.850;2022-07-10T03:34:30;15.37;74.48
67054;SHT31;53960;51.826;5.850;2022-07-10T03:36:55;15.41;74.91
67054;SHT31;53960;51.826;5.850;2022-07-10T03:39:21;15.34;74.93
67054;SHT31;53960;51.826;5.850;2022-07-10T03:41:47;15.32;75.16
67054;SHT31;53960;51.826;5.850;2022-07-10T03:44:12;15.32;75.10
67054;SHT31;53960;51.826;5.850;2022-07-10T03:46:38;15.30;75.09
67054;SHT31;53960;51.826;5.850;2022-07-10T03:49:03;15.24;75.36
67054;SHT31;53960;51.826;5.850;2022-07-10T03:51:28;15.28;75.17
67054;SHT31;53960;51.826;5.850;2022-07-10T03:53:53;15.34;74.95
67054;SHT31;53960;51.826;5.850;2022-07-10T03:56:19;15.35;74.89
67054;SHT31;53960;51.826;5.850;2022-07-10T03:59:02;15.37;75.09
67054;SHT31;53960;51.826;5.850;2022-07-10T04:01:28;15.34;75.30
67054;SHT31;53960;51.826;5.850;2022-07-10T04:03:53;15.30;75.63
67054;SHT31;53960;51.826;5.850;2022-07-10T04:06:18;15.37;75.30
67054;SHT31;53960;51.826;5.850;2022-07-10T04:08:43;15.42;75.59
67054;SHT31;53960;51.826;5.850;2022-07-10T04:11:09;15.45;75.09
67054;SHT31;53960;51.826;5.850;2022-07-10T04:13:34;15.42;75.16
67054;SHT31;53960;51.826;5.850;2022-07-10T04:15:59;15.38;75.72
67054;SHT31;53960;51.826;5.850;2022-07-10T04:18:25;15.42;75.52
67054;SHT31;53960;51.826;5.850;2022-07-10T04:20:50;15.48;75.53
67054;SHT31;53960;51.826;5.850;2022-07-10T04:23:15;15.55;74.91
67054;SHT31;53960;51.826;5.850;2022-07-10T04:25:40;15.59;75.14
67054;SHT31;53960;51.826;5.850;2022-07-10T04:28:06;15.72;74.14
67054;SHT31;53960;51.826;5.850;2022-07-10T04:30:31;15.69;74.00
67054;SHT31;53960;51.826;5.850;2022-07-10T04:32:56;15.68;74.11
67054;SHT31;53960;51.826;5.850;2022-07-10T04:35:22;15.66;74.09
67054;SHT31;53960;51.826;5.850;2022-07-10T04:37:47;15.72;74.10
67054;SHT31;53960;51.826;5.850;2022-07-10T04:40:13;15.82;73.65
67054;SHT31;53960;51.826;5.850;2022-07-10T04:42:38;15.82;73.51
67054;SHT31;53960;51.826;5.850;2022-07-10T04:45:04;15.69;74.38
67054;SHT31;53960;51.826;5.850;2022-07-10T04:47:29;15.66;73.94
67054;SHT31;53960;51.826;5.850;2022-07-10T04:49:54;15.70;73.81
67054;SHT31;53960;51.826;5.850;2022-07-10T04:52:20;15.63;74.33
67054;SHT31;53960;51.826;5.850;2022-07-10T04:54:45;15.65;73.84
67054;SHT31;53960;51.826;5.850;2022-07-10T04:57:10;15.75;73.46
67054;SHT31;53960;51.826;5.850;2022-07-10T04:59:36;15.68;73.98
67054;SHT31;53960;51.826;5.850;2022-07-10T05:02:01;15.72;73.65
67054;SHT31;53960;51.826;5.850;2022-07-10T05:04:26;15.61;73.70
67054;SHT31;53960;51.826;5.850;2022-07-10T05:06:52;15.83;73.01
67054;SHT31;53960;51.826;5.850;2022-07-10T05:09:17;15.83;73.67
67054;SHT31;53960;51.826;5.850;2022-07-10T05:11:45;15.83;73.21
67054;SHT31;53960;51.826;5.850;2022-07-10T05:14:10;15.78;73.68
67054;SHT31;53960;51.826;5.850;2022-07-10T05:16:36;15.89;73.20
67054;SHT31;53960;51.826;5.850;2022-07-10T05:19:01;15.97;72.93
67054;SHT31;53960;51.826;5.850;2022-07-10T05:21:26;16.00;73.23
67054;SHT31;53960;51.826;5.850;2022-07-10T05:23:52;15.96;73.03
67054;SHT31;53960;51.826;5.850;2022-07-10T05:26:17;16.02;72.91
67054;SHT31;53960;51.826;5.850;2022-07-10T05:28:42;16.10;72.99
67054;SHT31;53960;51.826;5.850;2022-07-10T05:31:08;16.09;73.01
67054;SHT31;53960;51.826;5.850;2022-07-10T05:33:33;16.10;72.92
67054;SHT31;53960;51.826;5.850;2022-07-10T05:35:59;16.21;72.83
67054;SHT31;53960;51.826;5.850;2022-07-10T05:38:24;16.21;73.22
67054;SHT31;53960;51.826;5.850;2022-07-10T05:40:49;16.18;73.61
67054;SHT31;53960;51.826;5.850;2022-07-10T05:43:15;16.16;73.38
67054;SHT31;53960;51.826;5.850;2022-07-10T05:45:41;16.14;73.73
67054;SHT31;53960;51.826;5.850;2022-07-10T05:48:06;16.09;73.84
67054;SHT31;53960;51.826;5.850;2022-07-10T05:50:31;16.20;73.79
67054;SHT31;53960;51.826;5.850;2022-07-10T05:52:57;16.21;73.67
67054;SHT31;53960;51.826;5.850;2022-07-10T05:55:22;16.14;73.68
67054;SHT31;53960;51.826;5.850;2022-07-10T05:57:49;16.23;73.52
67054;SHT31;53960;51.826;5.850;2022-07-10T06:00:15;16.17;73.79
67054;SHT31;53960;51.826;5.850;2022-07-10T06:02:40;16.27;73.58
67054;SHT31;53960;51.826;5.850;2022-07-10T06:05:06;16.26;73.67
67054;SHT31;53960;51.826;5.850;2022-07-10T06:07:32;16.36;73.73
67054;SHT31;53960;51.826;5.850;2022-07-10T06:09:57;16.36;73.73
67054;SHT31;53960;51.826;5.850;2022-07-10T06:12:23;16.30;73.98
67054;SHT31;53960;51.826;5.850;2022-07-10T06:14:48;16.37;74.07
67054;SHT31;53960;51.826;5.850;2022-07-10T06:17:13;16.28;73.90
67054;SHT31;53960;51.826;5.850;2022-07-10T06:19:39;16.34;73.78
67054;SHT31;53960;51.826;5.850;2022-07-10T06:22:04;16.30;73.85
67054;SHT31;53960;51.826;5.850;2022-07-10T06:24:48;16.27;74.09
67054;SHT31;53960;51.826;5.850;2022-07-10T06:27:13;16.26;74.16
67054;SHT31;53960;51.826;5.850;2022-07-10T06:29:38;16.24;74.59
67054;SHT31;53960;51.826;5.850;2022-07-10T06:32:04;16.31;74.36
67054;SHT31;53960;51.826;5.850;2022-07-10T06:34:30;16.33;74.27
67054;SHT31;53960;51.826;5.850;2022-07-10T06:36:55;16.43;74.16
67054;SHT31;53960;51.826;5.850;2022-07-10T06:39:21;16.33;74.29
67054;SHT31;53960;51.826;5.850;2022-07-10T06:41:46;16.31;74.51
67054;SHT31;53960;51.826;5.850;2022-07-10T06:44:11;16.34;74.92
67054;SHT31;53960;51.826;5.850;2022-07-10T06:46:37;16.38;74.71
67054;SHT31;53960;51.826;5.850;2022-07-10T06:49:02;16.33;74.87
67054;SHT31;53960;51.826;5.850;2022-07-10T06:51:27;16.27;74.96
67054;SHT31;53960;51.826;5.850;2022-07-10T06:53:53;16.26;74.81
67054;SHT31;53960;51.826;5.850;2022-07-10T06:56:20;16.21;75.01
67054;SHT31;53960;51.826;5.850;2022-07-10T06:58:45;16.40;74.36
67054;SHT31;53960;51.826;5.850;2022-07-10T07:01:11;16.28;75.04
67054;SHT31;53960;51.826;5.850;2022-07-10T07:03:36;16.23;75.13
67054;SHT31;53960;51.826;5.850;2022-07-10T07:06:01;16.27;75.39
67054;SHT31;53960;51.826;5.850;2022-07-10T07:08:29;16.44;75.06
67054;SHT31;53960;51.826;5.850;2022-07-10T07:10:54;16.40;75.28
67054;SHT31;53960;51.826;5.850;2022-07-10T07:13:20;16.48;75.29
67054;SHT31;53960;51.826;5.850;2022-07-10T07:15:45;16.53;74.90
67054;SHT31;53960;51.826;5.850;2022-07-10T07:18:18;16.60;75.42
67054;SHT31;53960;51.826;5.850;2022-07-10T07:20:46;16.41;75.95
67054;SHT31;53960;51.826;5.850;2022-07-10T07:23:30;16.26;77.05
67054;SHT31;53960;51.826;5.850;2022-07-10T07:25:55;16.36;77.55
67054;SHT31;53960;51.826;5.850;2022-07-10T07:28:20;16.30;78.02
67054;SHT31;53960;51.826;5.850;2022-07-10T07:30:47;16.45;76.95
67054;SHT31;53960;51.826;5.850;2022-07-10T07:33:12;16.54;76.87
67054;SHT31;53960;51.826;5.850;2022-07-10T07:35:38;16.61;76.45
67054;SHT31;53960;51.826;5.850;2022-07-10T07:38:04;16.78;76.10
67054;SHT31;53960;51.826;5.850;2022-07-10T07:40:31;16.78;75.61
67054;SHT31;53960;51.826;5.850;2022-07-10T07:42:56;16.63;75.84
67054;SHT31;53960;51.826;5.850;2022-07-10T07:45:22;16.67;76.06
67054;SHT31;53960;51.826;5.850;2022-07-10T07:47:53;16.69;76.02
67054;SHT31;53960;51.826;5.850;2022-07-10T07:50:22;16.71;76.14
67054;SHT31;53960;51.826;5.850;2022-07-10T07:52:48;16.75;75.77
67054;SHT31;53960;51.826;5.850;2022-07-10T07:55:15;16.78;75.56
67054;SHT31;53960;51.826;5.850;2022-07-10T07:57:42;16.85;75.32
67054;SHT31;53960;51.826;5.850;2022-07-10T08:00:09;16.92;75.03
67054;SHT31;53960;51.826;5.850;2022-07-10T08:02:35;16.99;74.37
67054;SHT31;53960;51.826;5.850;2022-07-10T08:05:01;16.85;74.81
67054;SHT31;53960;51.826;5.850;2022-07-10T08:07:42;16.88;74.93
67054;SHT31;53960;51.826;5.850;2022-07-10T08:10:09;16.75;75.65
67054;SHT31;53960;51.826;5.850;2022-07-10T08:12:34;16.81;75.57
67054;SHT31;53960;51.826;5.850;2022-07-10T08:14:59;16.63;76.31
67054;SHT31;53960;51.826;5.850;2022-07-10T08:17:26;16.74;75.85
67054;SHT31;53960;51.826;5.850;2022-07-10T08:19:51;16.94;75.46
67054;SHT31;53960;51.826;5.850;2022-07-10T08:22:17;16.95;75.45
67054;SHT31;53960;51.826;5.850;2022-07-10T08:24:42;17.11;75.21
67054;SHT31;53960;51.826;5.850;2022-07-10T08:27:08;17.23;74.55
67054;SHT31;53960;51.826;5.850;2022-07-10T08:29:33;17.29;74.52
67054;SHT31;53960;51.826;5.850;2022-07-10T08:31:59;17.40;73.91
67054;SHT31;53960;51.826;5.850;2022-07-10T08:34:24;17.47;73.12
67054;SHT31;53960;51.826;5.850;2022-07-10T08:36:50;17.56;73.25
67054;SHT31;53960;51.826;5.850;2022-07-10T08:39:15;17.80;72.95
67054;SHT31;53960;51.826;5.850;2022-07-10T08:41:42;17.95;71.91
67054;SHT31;53960;51.826;5.850;2022-07-10T08:44:08;18.02;72.05
67054;SHT31;53960;51.826;5.850;2022-07-10T08:46:34;17.87;71.89
67054;SHT31;53960;51.826;5.850;2022-07-10T08:49:05;17.90;72.60
67054;SHT31;53960;51.826;5.850;2022-07-10T08:51:36;17.98;71.50
67054;SHT31;53960;51.826;5.850;2022-07-10T08:54:04;18.01;70.90
67054;SHT31;53960;51.826;5.850;2022-07-10T08:56:31;18.12;71.10
67054;SHT31;53960;51.826;5.850;2022-07-10T08:58:57;18.25;70.27
67054;SHT31;53960;51.826;5.850;2022-07-10T09:01:23;18.02;70.13
67054;SHT31;53960;51.826;5.850;2022-07-10T09:03:51;17.93;70.64
67054;SHT31;53960;51.826;5.850;2022-07-10T09:06:17;17.90;70.41
67054;SHT31;53960;51.826;5.850;2022-07-10T09:09:02;18.02;70.83
67054;SHT31;53960;51.826;5.850;2022-07-10T09:11:28;18.06;70.21
67054;SHT31;53960;51.826;5.850;2022-07-10T09:14:02;18.11;70.50
67054;SHT31;53960;51.826;5.850;2022-07-10T09:16:38;18.12;69.86
67054;SHT31;53960;51.826;5.850;2022-07-10T09:21:42;18.31;69.32
67054;SHT31;53960;51.826;5.850;2022-07-10T09:24:08;18.39;68.68
67054;SHT31;53960;51.826;5.850;2022-07-10T09:26:35;18.39;68.51
67054;SHT31;53960;51.826;5.850;2022-07-10T09:29:09;18.46;69.12
67054;SHT31;53960;51.826;5.850;2022-07-10T09:31:55;18.72;68.40
67054;SHT31;53960;51.826;5.850;2022-07-10T09:34:46;18.80;68.16
67054;SHT31;53960;51.826;5.850;2022-07-10T09:40:03;18.82;67.44
67054;SHT31;53960;51.826;5.850;2022-07-10T09:47:37;18.89;66.97
67054;SHT31;53960;51.826;5.850;2022-07-10T09:50:03;19.07;67.10
67054;SHT31;53960;51.826;5.850;2022-07-10T09:52:29;19.06;67.05
67054;SHT31;53960;51.826;5.850;2022-07-10T09:54:58;18.99;67.41
67054;SHT31;53960;51.826;5.850;2022-07-10T09:57:27;18.90;67.66
67054;SHT31;53960;51.826;5.850;2022-07-10T09:59:53;18.90;67.60
67054;SHT31;53960;51.826;5.850;2022-07-10T10:02:20;18.99;67.10
67054;SHT31;53960;51.826;5.850;2022-07-10T10:04:47;19.07;66.44
67054;SHT31;53960;51.826;5.850;2022-07-10T10:07:13;19.21;66.80
67054;SHT31;53960;51.826;5.850;2022-07-10T10:09:47;19.30;66.07
67054;SHT31;53960;51.826;5.850;2022-07-10T10:12:21;19.28;66.49
67054;SHT31;53960;51.826;5.850;2022-07-10T10:14:50;19.11;66.68
67054;SHT31;53960;51.826;5.850;2022-07-10T10:17:17;19.03;67.66
67054;SHT31;53960;51.826;5.850;2022-07-10T10:19:44;18.84;67.94
67054;SHT31;53960;51.826;5.850;2022-07-10T10:22:43;18.79;68.27
67054;SHT31;53960;51.826;5.850;2022-07-10T10:25:09;18.72;68.50
67054;SHT31;53960;51.826;5.850;2022-07-10T10:27:35;18.77;68.80
67054;SHT31;53960;51.826;5.850;2022-07-10T10:30:01;18.84;67.96
67054;SHT31;53960;51.826;5.850;2022-07-10T10:32:27;19.10;67.23
67054;SHT31;53960;51.826;5.850;2022-07-10T10:34:53;19.31;67.29
67054;SHT31;53960;51.826;5.850;2022-07-10T10:39:56;19.78;63.69
67054;SHT31;53960;51.826;5.850;2022-07-10T10:50:55;20.12;65.11
67054;SHT31;53960;51.826;5.850;2022-07-10T10:53:28;20.23;63.56
67054;SHT31;53960;51.826;5.850;2022-07-10T10:58:27;20.14;64.40
67054;SHT31;53960;51.826;5.850;2022-07-10T11:01:02;20.13;63.59
67054;SHT31;53960;51.826;5.850;2022-07-10T11:03:28;20.13;63.52
67054;SHT31;53960;51.826;5.850;2022-07-10T11:05:53;20.00;62.79
67054;SHT31;53960;51.826;5.850;2022-07-10T11:08:39;20.06;64.38
67054;SHT31;53960;51.826;5.850;2022-07-10T11:11:41;20.29;63.38
67054;SHT31;53960;51.826;5.850;2022-07-10T11:14:08;20.43;63.37
67054;SHT31;53960;51.826;5.850;2022-07-10T11:16:33;20.50;62.92
67054;SHT31;53960;51.826;5.850;2022-07-10T11:19:00;20.39;62.48
67054;SHT31;53960;51.826;5.850;2022-07-10T11:21:25;20.40;63.40
67054;SHT31;53960;51.826;5.850;2022-07-10T11:27:02;20.44;63.54
67054;SHT31;53960;51.826;5.850;2022-07-10T11:29:27;20.45;62.74
67054;SHT31;53960;51.826;5.850;2022-07-10T11:31:53;20.44;62.59
67054;SHT31;53960;51.826;5.850;2022-07-10T11:34:20;20.41;62.89
67054;SHT31;53960;51.826;5.850;2022-07-10T11:36:47;20.44;63.48
67054;SHT31;53960;51.826;5.850;2022-07-10T11:39:13;20.50;63.05
67054;SHT31;53960;51.826;5.850;2022-07-10T11:41:42;20.48;62.83
67054;SHT31;53960;51.826;5.850;2022-07-10T11:44:13;20.34;62.86
67054;SHT31;53960;51.826;5.850;2022-07-10T11:46:40;20.14;63.37
67054;SHT31;53960;51.826;5.850;2022-07-10T11:49:07;20.08;63.51
67054;SHT31;53960;51.826;5.850;2022-07-10T11:51:36;19.96;63.78
67054;SHT31;53960;51.826;5.850;2022-07-10T11:54:06;19.92;64.25
67054;SHT31;53960;51.826;5.850;2022-07-10T11:56:36;19.97;64.20
67054;SHT31;53960;51.826;5.850;2022-07-10T11:59:07;20.01;64.37
67054;SHT31;53960;51.826;5.850;2022-07-10T12:01:34;20.03;64.89
67054;SHT31;53960;51.826;5.850;2022-07-10T12:04:02;20.00;64.45
67054;SHT31;53960;51.826;5.850;2022-07-10T12:06:29;19.94;64.77
67054;SHT31;53960;51.826;5.850;2022-07-10T12:08:55;20.09;64.26
67054;SHT31;53960;51.826;5.850;2022-07-10T12:11:21;19.96;64.67
67054;SHT31;53960;51.826;5.850;2022-07-10T12:13:51;19.86;65.34
67054;SHT31;53960;51.826;5.850;2022-07-10T12:16:17;19.80;66.10
67054;SHT31;53960;51.826;5.850;2022-07-10T12:18:43;19.71;65.61
67054;SHT31;53960;51.826;5.850;2022-07-10T12:21:09;19.72;65.89
67054;SHT31;53960;51.826;5.850;2022-07-10T12:23:35;19.69;65.81
67054;SHT31;53960;51.826;5.850;2022-07-10T12:26:04;19.83;65.53
67054;SHT31;53960;51.826;5.850;2022-07-10T12:28:29;19.86;65.29
67054;SHT31;53960;51.826;5.850;2022-07-10T12:30:54;19.82;65.57
67054;SHT31;53960;51.826;5.850;2022-07-10T12:33:22;19.89;66.09
67054;SHT31;53960;51.826;5.850;2022-07-10T12:35:54;19.92;65.78
67054;SHT31;53960;51.826;5.850;2022-07-10T12:38:25;20.01;65.55
67054;SHT31;53960;51.826;5.850;2022-07-10T12:40:51;19.97;65.45
67054;SHT31;53960;51.826;5.850;2022-07-10T12:43:27;20.12;65.29
67054;SHT31;53960;51.826;5.850;2022-07-10T12:48:42;20.27;64.47
67054;SHT31;53960;51.826;5.850;2022-07-10T12:52:04;20.43;65.04
67054;SHT31;53960;51.826;5.850;2022-07-10T12:54:33;20.44;63.95
67054;SHT31;53960;51.826;5.850;2022-07-10T12:56:59;20.45;63.74
67054;SHT31;53960;51.826;5.850;2022-07-10T12:59:26;20.71;63.05
67054;SHT31;53960;51.826;5.850;2022-07-10T13:01:52;20.82;62.13
67054;SHT31;53960;51.826;5.850;2022-07-10T13:04:25;20.95;62.24
67054;SHT31;53960;51.826;5.850;2022-07-10T13:07:12;20.95;62.32
67054;SHT31;53960;51.826;5.850;2022-07-10T13:09:39;20.91;62.11
67054;SHT31;53960;51.826;5.850;2022-07-10T13:12:05;20.84;61.45
67054;SHT31;53960;51.826;5.850;2022-07-10T13:14:31;20.88;61.53
67054;SHT31;53960;51.826;5.850;2022-07-10T13:16:56;20.87;61.12
67054;SHT31;53960;51.826;5.850;2022-07-10T13:19:21;20.94;61.40
67054;SHT31;53960;51.826;5.850;2022-07-10T13:21:47;20.91;61.80
67054;SHT31;53960;51.826;5.850;2022-07-10T13:24:15;20.82;61.67
67054;SHT31;53960;51.826;5.850;2022-07-10T13:26:40;20.91;61.89
67054;SHT31;53960;51.826;5.850;2022-07-10T13:29:06;20.89;61.10
67054;SHT31;53960;51.826;5.850;2022-07-10T13:31:32;21.09;60.78
67054;SHT31;53960;51.826;5.850;2022-07-10T13:33:57;21.18;60.42
67054;SHT31;53960;51.826;5.850;2022-07-10T13:36:23;21.15;60.44
67054;SHT31;53960;51.826;5.850;2022-07-10T13:38:48;21.16;60.35
67054;SHT31;53960;51.826;5.850;2022-07-10T13:41:15;21.20;60.77
67054;SHT31;53960;51.826;5.850;2022-07-10T13:43:40;21.22;60.37
67054;SHT31;53960;51.826;5.850;2022-07-10T13:46:06;21.30;61.62
67054;SHT31;53960;51.826;5.850;2022-07-10T13:48:31;21.33;61.17
67054;SHT31;53960;51.826;5.850;2022-07-10T13:50:56;21.33;60.38
67054;SHT31;53960;51.826;5.850;2022-07-10T13:53:22;21.33;59.75
67054;SHT31;53960;51.826;5.850;2022-07-10T13:55:48;21.45;59.31
67054;SHT31;53960;51.826;5.850;2022-07-10T13:58:14;21.46;58.70
67054;SHT31;53960;51.826;5.850;2022-07-10T14:00:40;21.51;59.10
67054;SHT31;53960;51.826;5.850;2022-07-10T14:03:06;21.70;59.91
67054;SHT31;53960;51.826;5.850;2022-07-10T14:05:32;21.88;58.07
67054;SHT31;53960;51.826;5.850;2022-07-10T14:07:58;21.80;57.51
67054;SHT31;53960;51.826;5.850;2022-07-10T14:10:24;21.78;58.17
67054;SHT31;53960;51.826;5.850;2022-07-10T14:12:51;21.80;58.02
67054;SHT31;53960;51.826;5.850;2022-07-10T14:15:17;21.63;58.48
67054;SHT31;53960;51.826;5.850;2022-07-10T14:17:42;21.83;58.16
67054;SHT31;53960;51.826;5.850;2022-07-10T14:20:09;21.93;57.86
67054;SHT31;53960;51.826;5.850;2022-07-10T14:22:34;22.01;57.97
67054;SHT31;53960;51.826;5.850;2022-07-10T14:25:00;21.87;57.83
67054;SHT31;53960;51.826;5.850;2022-07-10T14:27:26;21.86;58.07
67054;SHT31;53960;51.826;5.850;2022-07-10T14:29:53;21.86;57.39
67054;SHT31;53960;51.826;5.850;2022-07-10T14:32:18;21.91;56.14
67054;SHT31;53960;51.826;5.850;2022-07-10T14:34:43;21.80;56.74
67054;SHT31;53960;51.826;5.850;2022-07-10T14:37:09;21.83;57.50
67054;SHT31;53960;51.826;5.850;2022-07-10T14:39:34;21.77;57.37
67054;SHT31;53960;51.826;5.850;2022-07-10T14:41:59;21.66;56.44
67054;SHT31;53960;51.826;5.850;2022-07-10T14:44:26;21.53;57.15
67054;SHT31;53960;51.826;5.850;2022-07-10T14:46:51;21.60;56.61
67054;SHT31;53960;51.826;5.850;2022-07-10T14:49:16;21.46;57.14
67054;SHT31;53960;51.826;5.850;2022-07-10T14:51:42;21.49;57.01
67054;SHT31;53960;51.826;5.850;2022-07-10T14:54:07;21.53;57.86
67054;SHT31;53960;51.826;5.850;2022-07-10T14:56:33;21.66;57.62
67054;SHT31;53960;51.826;5.850;2022-07-10T14:58:58;21.66;57.43
67054;SHT31;53960;51.826;5.850;2022-07-10T15:01:23;21.64;57.53
67054;SHT31;53960;51.826;5.850;2022-07-10T15:03:49;21.71;57.55
67054;SHT31;53960;51.826;5.850;2022-07-10T15:06:14;21.63;57.54
67054;SHT31;53960;51.826;5.850;2022-07-10T15:08:39;21.58;58.05
67054;SHT31;53960;51.826;5.850;2022-07-10T15:11:05;21.57;57.91
67054;SHT31;53960;51.826;5.850;2022-07-10T15:13:32;21.61;57.73
67054;SHT31;53960;51.826;5.850;2022-07-10T15:15:57;21.66;57.36
67054;SHT31;53960;51.826;5.850;2022-07-10T15:18:22;21.66;56.89
67054;SHT31;53960;51.826;5.850;2022-07-10T15:20:48;21.64;57.49
67054;SHT31;53960;51.826;5.850;2022-07-10T15:23:14;21.64;57.00
67054;SHT31;53960;51.826;5.850;2022-07-10T15:25:40;21.74;57.36
67054;SHT31;53960;51.826;5.850;2022-07-10T15:28:09;21.78;57.12
67054;SHT31;53960;51.826;5.850;2022-07-10T15:30:35;21.93;56.77
67054;SHT31;53960;51.826;5.850;2022-07-10T15:33:02;22.12;56.91
67054;SHT31;53960;51.826;5.850;2022-07-10T15:35:28;22.19;56.30
67054;SHT31;53960;51.826;5.850;2022-07-10T15:37:54;22.36;56.58
67054;SHT31;53960;51.826;5.850;2022-07-10T15:40:19;22.32;56.32
67054;SHT31;53960;51.826;5.850;2022-07-10T15:42:45;22.32;56.28
67054;SHT31;53960;51.826;5.850;2022-07-10T15:45:10;22.28;56.23
67054;SHT31;53960;51.826;5.850;2022-07-10T15:47:36;22.00;56.71
67054;SHT31;53960;51.826;5.850;2022-07-10T15:50:01;21.80;57.80
67054;SHT31;53960;51.826;5.850;2022-07-10T15:52:26;21.71;58.28
67054;SHT31;53960;51.826;5.850;2022-07-10T15:54:52;21.63;58.89
67054;SHT31;53960;51.826;5.850;2022-07-10T15:57:17;21.61;58.92